Time;durP1;ratioP1;P1;durP2;ratioP2;P2;SDS_P1;SDS_P2;PMS_P1;PMS_P2;Temp;Humidity;BMP_temperature;BMP_pressure;BME280_temperature;BME280_humidity;BME280_pressure;Samples;Min_cycle;Max_cycle;Signal;HPM_P1;HPM_P2
2022/03/16 00:00:09;;;;;;;13.07;11.73;;;;;;;5.58;100.00;97573.78;4986461;28;20243;-58
2022/03/16 00:02:57;;;;;;;14.23;12.83;;;;;;;5.56;100.00;97581.81;4973784;28;20216;-55
2022/03/16 00:05:26;;;;;;;14.27;12.90;;;;;;;5.57;100.00;97587.91;4969032;28;21135;-57
2022/03/16 00:07:56;;;;;;;13.77;12.37;;;;;;;5.40;100.00;97582.38;4988152;28;20315;-59
2022/03/16 00:10:24;;;;;;;14.27;12.87;;;;;;;5.44;100.00;97581.13;4934664;28;20490;-55
2022/03/16 00:12:52;;;;;;;15.07;13.00;;;;;;;5.36;100.00;97591.53;4984985;28;20209;-54
2022/03/16 00:15:20;;;;;;;15.67;14.07;;;;;;;5.50;100.00;97583.22;4980952;28;20769;-54
2022/03/16 00:17:48;;;;;;;17.37;14.30;;;;;;;5.41;100.00;97585.88;4975281;28;20235;-58
2022/03/16 00:20:16;;;;;;;15.07;13.47;;;;;;;5.40;100.00;97587.66;4966905;28;20789;-57
2022/03/16 00:22:44;;;;;;;15.37;13.47;;;;;;;5.43;100.00;97590.00;4987085;28;20197;-57
2022/03/16 00:25:14;;;;;;;16.80;14.40;;;;;;;5.44;100.00;97585.59;4937835;28;20216;-55
2022/03/16 00:27:43;;;;;;;16.87;14.90;;;;;;;5.30;100.00;97594.72;4976079;28;20233;-59
2022/03/16 00:30:12;;;;;;;15.57;13.40;;;;;;;5.34;100.00;97591.69;4984807;28;20206;-56
2022/03/16 00:32:40;;;;;;;15.27;13.63;;;;;;;5.36;100.00;97600.25;4986577;28;20398;-54
2022/03/16 00:35:09;;;;;;;17.53;15.73;;;;;;;5.27;100.00;97595.81;4954764;28;20232;-56
2022/03/16 00:37:37;;;;;;;20.47;15.83;;;;;;;5.28;100.00;97597.47;4980229;28;20348;-58
2022/03/16 00:40:09;;;;;;;18.93;16.90;;;;;;;5.23;100.00;97599.69;4969751;28;20209;-57
2022/03/16 00:42:39;;;;;;;17.33;15.43;;;;;;;5.26;100.00;97607.31;4969125;28;20212;-58
2022/03/16 00:45:09;;;;;;;17.17;15.13;;;;;;;5.21;100.00;97602.47;4982411;28;20301;-58
2022/03/16 00:47:37;;;;;;;17.80;15.83;;;;;;;5.29;100.00;97606.22;4981774;28;20220;-54
2022/03/16 00:50:06;;;;;;;18.63;16.83;;;;;;;5.24;100.00;97605.78;4966785;28;20201;-60
2022/03/16 00:52:35;;;;;;;19.87;15.70;;;;;;;5.13;100.00;97604.97;4975600;28;20216;-54
2022/03/16 00:55:03;;;;;;;20.53;17.30;;;;;;;5.06;100.00;97606.47;4969628;28;20245;-56
2022/03/16 00:57:32;;;;;;;21.80;18.07;;;;;;;5.11;100.00;97603.44;4955608;28;20474;-55
2022/03/16 01:00:01;;;;;;;18.97;16.97;;;;;;;5.18;100.00;97602.75;4987240;28;20212;-55
2022/03/16 01:02:29;;;;;;;19.33;17.27;;;;;;;5.11;100.00;97600.81;4984151;28;20902;-55
2022/03/16 01:04:58;;;;;;;22.23;18.30;;;;;;;4.97;100.00;97604.69;4968042;28;20201;-56
2022/03/16 01:07:26;;;;;;;17.30;15.53;;;;;;;5.00;100.00;97614.91;4966507;28;20988;-55
2022/03/16 01:09:54;;;;;;;18.97;16.97;;;;;;;5.06;100.00;97609.09;4972877;28;20702;-56
2022/03/16 01:12:22;;;;;;;18.27;16.33;;;;;;;4.97;100.00;97615.19;4944807;28;20841;-55
2022/03/16 01:14:51;;;;;;;20.73;16.00;;;;;;;4.96;100.00;97613.53;4982521;28;20239;-52
2022/03/16 01:17:20;;;;;;;17.90;16.00;;;;;;;4.86;100.00;97616.16;4986614;28;20225;-56
2022/03/16 01:19:48;;;;;;;17.63;15.33;;;;;;;4.97;100.00;97612.56;4965956;28;21046;-53
2022/03/16 01:22:17;;;;;;;17.80;15.57;;;;;;;4.97;100.00;97623.91;4973930;28;20335;-54
2022/03/16 01:24:45;;;;;;;17.57;14.30;;;;;;;4.89;100.00;97632.47;4969060;28;20292;-55
2022/03/16 01:27:13;;;;;;;16.23;14.63;;;;;;;4.83;100.00;97627.78;4949561;28;20232;-59
2022/03/16 01:29:47;;;;;;;14.77;13.43;;;;;;;4.82;100.00;97634.00;4980267;28;20216;-51
2022/03/16 01:32:15;;;;;;;12.97;11.63;;;;;;;4.72;100.00;97631.34;4984335;28;20838;-60
2022/03/16 01:34:45;;;;;;;12.93;11.60;;;;;;;4.65;100.00;97630.22;4978004;28;20222;-55
2022/03/16 01:37:13;;;;;;;11.90;10.70;;;;;;;4.46;100.00;97638.91;4956599;28;20324;-56
2022/03/16 01:39:41;;;;;;;11.47;10.43;;;;;;;4.23;100.00;97622.53;4981613;28;20209;-56
2022/03/16 01:42:09;;;;;;;12.47;11.07;;;;;;;4.07;100.00;97630.88;4968716;28;20231;-57
2022/03/16 01:44:48;;;;;;;12.17;10.97;;;;;;;4.09;100.00;97627.16;4943647;28;20236;-56
2022/03/16 01:47:18;;;;;;;12.77;11.57;;;;;;;4.02;100.00;97632.13;4983661;28;20776;-53
2022/03/16 01:49:48;;;;;;;11.80;10.60;;;;;;;3.96;100.00;97634.41;4983161;28;20458;-55
2022/03/16 01:52:20;;;;;;;11.90;10.33;;;;;;;3.84;100.00;97631.03;4968496;28;20716;-58
2022/03/16 01:54:48;;;;;;;12.87;11.57;;;;;;;3.86;100.00;97635.22;4967754;28;20858;-55
2022/03/16 01:57:16;;;;;;;11.80;10.60;;;;;;;3.67;100.00;97630.69;4970734;28;20233;-52
2022/03/16 01:59:45;;;;;;;12.17;10.97;;;;;;;3.65;100.00;97635.25;4943092;28;20975;-55
2022/03/16 02:02:13;;;;;;;10.77;9.77;;;;;;;3.59;100.00;97635.72;4984173;28;20206;-54
2022/03/16 02:04:42;;;;;;;10.43;9.33;;;;;;;3.39;100.00;97621.66;4981979;28;20289;-55
2022/03/16 02:07:12;;;;;;;11.17;10.17;;;;;;;3.39;100.00;97634.78;4969301;28;20923;-55
2022/03/16 02:09:40;;;;;;;10.67;9.63;;;;;;;3.27;100.00;97637.47;4965878;28;20296;-55
2022/03/16 02:12:12;;;;;;;12.30;11.00;;;;;;;3.25;100.00;97633.31;4971422;28;20308;-57
2022/03/16 02:14:40;;;;;;;12.63;11.33;;;;;;;3.13;100.00;97627.28;4942581;28;20665;-55
2022/03/16 02:17:08;;;;;;;11.60;10.33;;;;;;;3.04;100.00;97634.97;4979167;28;20264;-56
2022/03/16 02:19:37;;;;;;;11.83;10.63;;;;;;;3.17;100.00;97631.31;4983348;28;20310;-55
2022/03/16 02:22:05;;;;;;;12.37;11.13;;;;;;;3.04;100.00;97636.72;4964749;28;21088;-55
2022/03/16 02:24:35;;;;;;;12.13;10.93;;;;;;;3.01;100.00;97642.22;4966418;28;20296;-53
2022/03/16 02:27:04;;;;;;;11.97;10.77;;;;;;;2.91;100.00;97641.31;4982601;28;20308;-58
2022/03/16 02:29:34;;;;;;;12.10;10.83;;;;;;;2.77;100.00;97632.75;4936578;28;20205;-53
2022/03/16 02:32:02;;;;;;;11.43;10.27;;;;;;;2.66;100.00;97643.28;4980930;28;20289;-56
2022/03/16 02:34:30;;;;;;;12.77;11.53;;;;;;;2.58;100.00;97636.88;4982044;28;20209;-57
2022/03/16 02:36:59;;;;;;;11.70;10.50;;;;;;;2.55;100.00;97644.97;4960051;28;20407;-55
2022/03/16 02:39:28;;;;;;;11.57;10.43;;;;;;;2.45;100.00;97657.94;4959481;28;20346;-57
2022/03/16 02:41:57;;;;;;;12.37;11.17;;;;;;;2.41;100.00;97664.34;4966951;28;20208;-57
2022/03/16 02:44:25;;;;;;;10.47;9.37;;;;;;;2.25;100.00;97663.88;4968024;28;20296;-52
2022/03/16 02:46:54;;;;;;;13.13;11.80;;;;;;;2.21;100.00;97663.31;4951754;28;20202;-58
2022/03/16 02:49:22;;;;;;;12.03;10.37;;;;;;;2.30;100.00;97670.41;4986561;28;20213;-57
2022/03/16 02:51:51;;;;;;;11.87;10.73;;;;;;;2.48;100.00;97674.34;4986129;28;20213;-54
2022/03/16 02:54:19;;;;;;;11.50;9.87;;;;;;;2.69;100.00;97671.81;4969874;28;20205;-56
2022/03/16 02:56:48;;;;;;;11.47;10.37;;;;;;;2.78;100.00;97668.44;4969391;28;20232;-59
2022/03/16 02:59:17;;;;;;;10.90;9.80;;;;;;;2.49;100.00;97674.22;4969909;28;20327;-56
2022/03/16 03:01:45;;;;;;;13.63;10.77;;;;;;;2.60;100.00;97678.59;4956421;28;20217;-56
2022/03/16 03:04:14;;;;;;;11.73;10.63;;;;;;;2.78;100.00;97681.53;4988846;28;20208;-53
2022/03/16 03:06:42;;;;;;;10.60;9.53;;;;;;;2.94;100.00;97689.00;4991886;28;20239;-53
2022/03/16 03:09:10;;;;;;;11.47;10.37;;;;;;;3.04;100.00;97689.09;4959170;28;20229;-57
2022/03/16 03:11:40;;;;;;;13.17;11.90;;;;;;;2.95;100.00;97685.41;4970078;28;20221;-56
2022/03/16 03:14:08;;;;;;;11.33;10.13;;;;;;;3.14;100.00;97695.25;4971746;28;21802;-56
2022/03/16 03:16:37;;;;;;;13.20;11.57;;;;;;;3.08;100.00;97706.22;4940391;28;20221;-56
2022/03/16 03:19:06;;;;;;;13.67;12.27;;;;;;;3.15;100.00;97696.91;4988734;28;20223;-54
2022/03/16 03:21:35;;;;;;;11.83;10.73;;;;;;;3.11;100.00;97708.56;4987574;28;20756;-56
2022/03/16 03:24:04;;;;;;;14.77;11.43;;;;;;;3.20;100.00;97712.25;4988976;28;20843;-57
2022/03/16 03:26:35;;;;;;;12.67;11.57;;;;;;;3.29;100.00;97716.72;4946321;28;20213;-56
2022/03/16 03:29:03;;;;;;;12.97;11.67;;;;;;;3.26;100.00;97727.47;4974138;28;20498;-55
2022/03/16 03:31:32;;;;;;;11.67;10.53;;;;;;;3.51;100.00;97729.88;4989075;28;20300;-55
2022/03/16 03:34:02;;;;;;;12.27;11.17;;;;;;;3.51;100.00;97730.72;4950976;28;20935;-59
2022/03/16 03:36:30;;;;;;;13.13;11.47;;;;;;;3.63;100.00;97728.88;4985207;28;20225;-52
2022/03/16 03:38:58;;;;;;;11.27;10.27;;;;;;;3.49;100.00;97735.25;4984370;28;20918;-55
2022/03/16 03:41:27;;;;;;;12.30;11.10;;;;;;;3.53;100.00;97738.44;4967147;28;20690;-57
2022/03/16 03:43:55;;;;;;;13.30;11.90;;;;;;;3.66;100.00;97743.50;4965275;28;21156;-55
2022/03/16 03:46:23;;;;;;;13.03;11.50;;;;;;;3.40;100.00;97749.06;4978455;28;20209;-54
2022/03/16 03:48:52;;;;;;;11.63;10.57;;;;;;;3.33;100.00;97754.00;4939887;28;20248;-51
2022/03/16 03:51:21;;;;;;;11.50;10.43;;;;;;;3.32;100.00;97762.81;4980597;28;20705;-57
2022/03/16 03:53:49;;;;;;;12.23;10.93;;;;;;;3.23;100.00;97750.47;4983598;28;20787;-56
2022/03/16 03:56:18;;;;;;;13.10;11.40;;;;;;;3.39;100.00;97750.88;4989021;28;20240;-59
2022/03/16 03:58:46;;;;;;;12.80;11.27;;;;;;;3.48;100.00;97757.16;4950857;28;21117;-56
2022/03/16 04:01:15;;;;;;;11.00;9.73;;;;;;;3.67;100.00;97756.50;4970260;28;20288;-54
2022/03/16 04:03:45;;;;;;;11.87;10.63;;;;;;;3.70;100.00;97752.78;4966997;28;20580;-56
2022/03/16 04:06:13;;;;;;;11.27;10.27;;;;;;;3.71;100.00;97752.66;4982130;28;20216;-55
2022/03/16 04:08:43;;;;;;;11.23;10.13;;;;;;;3.99;100.00;97755.63;4987815;28;20320;-53
2022/03/16 04:11:13;;;;;;;12.57;11.33;;;;;;;3.91;100.00;97756.25;4962068;28;20202;-56
2022/03/16 04:13:41;;;;;;;11.77;10.57;;;;;;;3.78;100.00;97765.25;4945970;28;20237;-58
2022/03/16 04:16:09;;;;;;;13.47;11.30;;;;;;;3.64;100.00;97741.03;4977161;28;20893;-56
2022/03/16 04:18:37;;;;;;;11.93;10.67;;;;;;;3.56;100.00;97765.22;4991880;28;20236;-59
2022/03/16 04:21:06;;;;;;;15.25;13.68;;;;;;;3.94;100.00;97757.75;4952599;28;20473;-56
2022/03/16 04:23:34;;;;;;;12.53;11.33;;;;;;;3.88;100.00;97769.63;4982453;28;20314;-57
2022/03/16 04:26:03;;;;;;;12.53;11.23;;;;;;;3.64;100.00;97780.34;4982312;28;20223;-58
2022/03/16 04:28:32;;;;;;;12.70;11.47;;;;;;;3.51;100.00;97775.25;4966472;28;24055;-57
2022/03/16 04:31:01;;;;;;;12.30;11.10;;;;;;;3.46;100.00;97773.00;4950568;28;20220;-56
2022/03/16 04:33:29;;;;;;;12.90;11.60;;;;;;;3.36;100.00;97777.31;4979084;28;20430;-58
2022/03/16 04:35:57;;;;;;;13.30;11.93;;;;;;;3.46;100.00;97783.47;4934754;28;20268;-55
2022/03/16 04:38:25;;;;;;;12.70;11.37;;;;;;;3.58;100.00;97786.03;4976902;28;21298;-54
2022/03/16 04:40:54;;;;;;;12.87;10.97;;;;;;;3.64;100.00;97782.09;4981424;28;20209;-56
2022/03/16 04:43:23;;;;;;;11.67;10.47;;;;;;;3.77;100.00;97793.25;4958488;28;21922;-56
2022/03/16 04:45:51;;;;;;;13.60;11.67;;;;;;;3.68;100.00;97789.59;4927318;28;20208;-52
2022/03/16 04:48:19;;;;;;;14.10;12.60;;;;;;;3.82;100.00;97801.59;4964700;28;20237;-56
2022/03/16 04:50:48;;;;;;;12.90;11.50;;;;;;;3.92;100.00;97804.25;4930042;28;20279;-54
2022/03/16 04:53:16;;;;;;;13.47;12.10;;;;;;;3.85;100.00;97808.34;4986124;28;20209;-53
2022/03/16 04:55:44;;;;;;;13.10;11.70;;;;;;;3.86;100.00;97802.16;4988422;28;20241;-54
2022/03/16 04:58:13;;;;;;;12.40;11.10;;;;;;;3.97;100.00;97809.13;4979916;28;20881;-59
2022/03/16 05:00:43;;;;;;;13.27;11.97;;;;;;;3.94;100.00;97807.59;4946529;28;20308;-57
2022/03/16 05:03:15;;;;;;;13.83;12.43;;;;;;;3.87;100.00;97812.53;4963957;28;20573;-55
2022/03/16 05:05:43;;;;;;;13.77;12.47;;;;;;;3.84;100.00;97817.16;4942061;28;20221;-56
2022/03/16 05:08:12;;;;;;;12.80;11.50;;;;;;;3.93;100.00;97812.97;4959672;28;20235;-53
2022/03/16 05:10:40;;;;;;;15.90;13.23;;;;;;;3.88;100.00;97821.19;4979190;28;20698;-57
2022/03/16 05:13:08;;;;;;;13.33;11.93;;;;;;;3.77;100.00;97827.31;4955703;28;20239;-57
2022/03/16 05:15:36;;;;;;;11.53;10.43;;;;;;;3.60;100.00;97832.16;4963067;28;20259;-55
2022/03/16 05:18:06;;;;;;;12.70;11.40;;;;;;;3.63;100.00;97831.09;4952407;28;20326;-53
2022/03/16 05:20:42;;;;;;;12.53;11.20;;;;;;;3.67;100.00;97829.88;4974095;28;20209;-56
2022/03/16 05:23:10;;;;;;;13.17;11.80;;;;;;;3.71;100.00;97835.69;4972486;28;20312;-57
2022/03/16 05:25:39;;;;;;;12.33;11.07;;;;;;;3.69;100.00;97837.59;4989448;28;20283;-54
2022/03/16 05:28:07;;;;;;;13.60;12.27;;;;;;;3.71;100.00;97848.78;4986165;28;20519;-55
2022/03/16 05:30:35;;;;;;;14.97;13.43;;;;;;;3.77;100.00;97845.66;4988110;28;20288;-54
2022/03/16 05:33:03;;;;;;;13.83;12.43;;;;;;;3.82;100.00;97848.78;4952973;28;20220;-55
2022/03/16 05:35:34;;;;;;;14.10;11.70;;;;;;;3.77;100.00;97856.16;4985245;28;20201;-56
2022/03/16 05:38:05;;;;;;;13.60;11.93;;;;;;;3.78;100.00;97863.06;4945694;28;20225;-51
2022/03/16 05:40:33;;;;;;;12.33;11.03;;;;;;;3.70;100.00;97855.84;4986045;28;20235;-54
2022/03/16 05:43:01;;;;;;;13.47;12.07;;;;;;;3.95;100.00;97853.81;4968459;28;20907;-58
2022/03/16 05:45:30;;;;;;;13.37;11.97;;;;;;;4.05;100.00;97852.13;4982784;28;20211;-56
2022/03/16 05:47:58;;;;;;;12.10;10.80;;;;;;;3.92;100.00;97859.31;4943106;28;20322;-57
2022/03/16 05:50:28;;;;;;;12.93;11.60;;;;;;;3.57;100.00;97860.38;4983038;28;20292;-59
2022/03/16 05:52:58;;;;;;;12.07;10.83;;;;;;;3.60;100.00;97857.53;4937765;28;20406;-57
2022/03/16 05:55:26;;;;;;;11.93;10.90;;;;;;;3.62;100.00;97864.31;4981813;28;20300;-56
2022/03/16 05:57:55;;;;;;;13.33;10.47;;;;;;;3.57;100.00;97863.00;4961678;28;20325;-60
2022/03/16 06:00:23;;;;;;;13.07;11.40;;;;;;;3.45;100.00;97872.69;4986189;28;20229;-53
2022/03/16 06:02:52;;;;;;;13.27;11.97;;;;;;;3.59;100.00;97884.66;4935800;28;20847;-53
2022/03/16 06:05:24;;;;;;;13.07;11.67;;;;;;;3.75;100.00;97884.28;4984415;28;20216;-59
2022/03/16 06:07:52;;;;;;;15.17;12.80;;;;;;;3.72;100.00;97876.66;4934386;28;20941;-56
2022/03/16 06:10:22;;;;;;;16.37;12.87;;;;;;;3.61;100.00;97885.41;4981558;28;20360;-57
2022/03/16 06:12:54;;;;;;;12.03;10.83;;;;;;;3.71;100.00;97888.94;4984094;28;20240;-57
2022/03/16 06:15:24;;;;;;;13.47;11.67;;;;;;;3.64;100.00;97895.66;4960697;28;20258;-56
2022/03/16 06:17:52;;;;;;;12.03;10.83;;;;;;;3.78;100.00;97891.88;4945036;28;20255;-58
2022/03/16 06:20:21;;;;;;;14.63;12.30;;;;;;;3.71;100.00;97902.06;4968160;28;20980;-58
2022/03/16 06:22:49;;;;;;;13.03;11.67;;;;;;;3.89;100.00;97904.13;4962752;28;20605;-56
2022/03/16 06:25:17;;;;;;;12.50;11.27;;;;;;;3.95;100.00;97894.97;4948649;28;20213;-61
2022/03/16 06:27:47;;;;;;;13.90;12.47;;;;;;;3.90;100.00;97901.41;4981409;28;20804;-56
2022/03/16 06:30:15;;;;;;;12.93;11.40;;;;;;;3.94;100.00;97903.78;4979822;28;20299;-57
2022/03/16 06:32:45;;;;;;;14.17;12.67;;;;;;;3.89;100.00;97899.75;4972307;28;20601;-57
2022/03/16 06:35:14;;;;;;;13.13;11.80;;;;;;;3.98;100.00;97903.41;4963296;28;20278;-57
2022/03/16 06:37:42;;;;;;;15.47;12.93;;;;;;;4.15;100.00;97906.44;4973847;28;20225;-54
2022/03/16 06:40:12;;;;;;;14.73;13.20;;;;;;;4.23;100.00;97908.44;4937915;28;20308;-53
2022/03/16 06:42:51;;;;;;;16.90;13.27;;;;;;;4.26;100.00;97913.44;4974210;28;20216;-56
2022/03/16 06:45:20;;;;;;;16.30;13.37;;;;;;;4.42;100.00;97915.63;4984060;28;20263;-55
2022/03/16 06:47:48;;;;;;;13.90;12.10;;;;;;;4.47;100.00;97918.72;4972107;28;20344;-55
2022/03/16 06:50:18;;;;;;;14.23;12.73;;;;;;;4.52;100.00;97913.91;4967575;28;20216;-55
2022/03/16 06:52:46;;;;;;;14.47;13.00;;;;;;;4.59;100.00;97914.25;4953494;28;20624;-58
2022/03/16 06:55:15;;;;;;;14.13;12.63;;;;;;;4.68;100.00;97915.25;4944606;28;20216;-60
2022/03/16 06:57:43;;;;;;;14.60;13.10;;;;;;;4.75;100.00;97916.41;4977753;28;20260;-57
2022/03/16 07:00:14;;;;;;;13.93;12.53;;;;;;;4.92;100.00;97923.69;4979481;28;20206;-58
2022/03/16 07:02:50;;;;;;;14.73;13.23;;;;;;;5.03;100.00;97922.78;4975258;28;20294;-56
2022/03/16 07:05:19;;;;;;;16.07;14.37;;;;;;;5.11;100.00;97927.38;4960983;28;20286;-59
2022/03/16 07:07:49;;;;;;;16.00;14.27;;;;;;;5.19;100.00;97927.56;4962998;28;20228;-55
2022/03/16 07:10:18;;;;;;;16.80;14.10;;;;;;;5.42;100.00;97931.81;4929652;28;20208;-56
2022/03/16 07:12:46;;;;;;;14.17;12.67;;;;;;;5.57;100.00;97933.09;4980167;28;20323;-54
2022/03/16 07:15:15;;;;;;;15.50;13.90;;;;;;;5.60;100.00;97938.06;4984542;28;20320;-60
2022/03/16 07:17:44;;;;;;;13.90;12.37;;;;;;;5.50;100.00;97930.19;4977827;28;20248;-55
2022/03/16 07:20:12;;;;;;;14.77;13.00;;;;;;;5.65;100.00;97935.88;4967404;28;20209;-56
2022/03/16 07:22:41;;;;;;;13.47;12.00;;;;;;;5.71;100.00;97937.16;4976554;28;20613;-56
2022/03/16 07:25:21;;;;;;;13.67;11.93;;;;;;;5.89;100.00;97942.59;4940992;28;20221;-55
2022/03/16 07:27:50;;;;;;;16.37;13.33;;;;;;;5.97;100.00;97941.06;4975776;28;20232;-55
2022/03/16 07:30:19;;;;;;;15.77;12.57;;;;;;;6.18;100.00;97939.19;4984572;28;20650;-57
2022/03/16 07:32:48;;;;;;;12.93;11.63;;;;;;;6.25;100.00;97936.84;4981758;28;20213;-56
2022/03/16 07:35:16;;;;;;;12.60;11.40;;;;;;;6.37;100.00;97927.00;4967155;28;20201;-58
2022/03/16 07:37:46;;;;;;;13.20;11.90;;;;;;;6.30;100.00;97929.38;4984020;28;20629;-56
2022/03/16 07:40:14;;;;;;;12.13;10.93;;;;;;;6.46;100.00;97930.59;4931045;28;20243;-58
2022/03/16 07:42:45;;;;;;;13.63;12.23;;;;;;;6.55;100.00;97929.75;4986099;28;20205;-55
2022/03/16 07:45:15;;;;;;;12.77;11.47;;;;;;;6.91;100.00;97931.81;4987497;28;20205;-56
2022/03/16 07:47:45;;;;;;;13.73;11.37;;;;;;;6.69;100.00;97931.13;4985043;28;20311;-56
2022/03/16 07:50:14;;;;;;;12.93;11.63;;;;;;;6.99;100.00;97934.56;4983589;28;20297;-59
2022/03/16 07:52:42;;;;;;;13.20;11.80;;;;;;;6.91;100.00;97934.44;4967293;28;20390;-54
2022/03/16 07:55:11;;;;;;;12.70;11.50;;;;;;;7.16;100.00;97921.59;4969448;28;20486;-55
2022/03/16 07:57:39;;;;;;;15.27;12.50;;;;;;;7.21;100.00;97936.00;4940737;28;20264;-55
2022/03/16 08:00:10;;;;;;;14.10;12.60;;;;;;;7.05;100.00;97931.34;4980376;28;20438;-56
2022/03/16 08:02:39;;;;;;;12.60;11.43;;;;;;;7.45;100.00;97941.75;4980593;28;20252;-56
2022/03/16 08:05:09;;;;;;;13.47;12.03;;;;;;;7.44;100.00;97935.66;4984317;28;20219;-57
2022/03/16 08:07:37;;;;;;;13.93;12.60;;;;;;;7.50;100.00;97936.88;4963765;28;20321;-56
2022/03/16 08:10:06;;;;;;;13.40;12.03;;;;;;;7.78;100.00;97937.72;4966658;28;20216;-59
2022/03/16 08:12:34;;;;;;;14.43;12.80;;;;;;;7.60;100.00;97935.03;4943100;28;20224;-56
2022/03/16 08:15:03;;;;;;;16.47;13.50;;;;;;;7.52;100.00;97929.63;4980397;28;20783;-55
2022/03/16 08:17:31;;;;;;;13.77;11.93;;;;;;;7.84;100.00;97941.56;4983367;28;20324;-54
2022/03/16 08:19:59;;;;;;;13.60;12.20;;;;;;;7.71;100.00;97943.72;4982621;28;20435;-60
2022/03/16 08:22:30;;;;;;;13.53;11.97;;;;;;;8.17;100.00;97944.53;4982990;28;20297;-56
2022/03/16 08:25:00;;;;;;;13.27;11.90;;;;;;;8.24;100.00;97939.50;4968438;28;20885;-56
2022/03/16 08:27:30;;;;;;;13.53;12.17;;;;;;;8.13;100.00;97943.19;4968037;28;20270;-54
2022/03/16 08:29:58;;;;;;;15.63;13.70;;;;;;;8.39;100.00;97939.81;4940408;28;20616;-54
2022/03/16 08:32:27;;;;;;;14.33;13.03;;;;;;;8.53;100.00;97941.13;4987173;28;20263;-55
2022/03/16 08:34:55;;;;;;;14.87;13.47;;;;;;;8.47;100.00;97939.88;4981350;28;20437;-58
2022/03/16 08:37:23;;;;;;;14.00;12.20;;;;;;;8.89;100.00;97932.28;4987120;28;20689;-54
2022/03/16 08:39:53;;;;;;;13.50;12.10;;;;;;;9.02;100.00;97938.00;4967408;28;20720;-57
2022/03/16 08:42:22;;;;;;;14.30;12.90;;;;;;;8.86;100.00;97936.06;4974555;28;20208;-57
2022/03/16 08:44:52;;;;;;;13.30;12.07;;;;;;;9.06;100.00;97936.69;4942204;28;20213;-54
2022/03/16 08:47:21;;;;;;;13.63;12.17;;;;;;;9.27;100.00;97935.50;4983410;28;20229;-54
2022/03/16 08:49:51;;;;;;;14.50;13.00;;;;;;;9.04;100.00;97948.41;4981666;28;20207;-56
2022/03/16 08:52:20;;;;;;;14.70;13.20;;;;;;;9.22;100.00;97949.19;4976970;28;22055;-51
2022/03/16 08:54:48;;;;;;;14.47;13.03;;;;;;;9.43;100.00;97960.38;4966295;28;20208;-56
2022/03/16 08:57:17;;;;;;;15.80;14.03;;;;;;;9.50;100.00;97956.94;4972552;28;20433;-57
2022/03/16 08:59:46;;;;;;;15.07;13.50;;;;;;;9.25;100.00;97967.38;4942826;28;20262;-56
2022/03/16 09:02:14;;;;;;;14.97;13.43;;;;;;;9.12;100.00;97970.47;4980878;28;20209;-54
2022/03/16 09:04:42;;;;;;;14.67;13.10;;;;;;;9.45;100.00;97966.31;4983312;28;20214;-55
2022/03/16 09:07:11;;;;;;;16.30;14.53;;;;;;;9.50;100.00;97969.34;4987115;28;20534;-54
2022/03/16 09:09:40;;;;;;;16.43;13.80;;;;;;;9.47;100.00;97967.00;4970094;28;20220;-60
2022/03/16 09:12:09;;;;;;;14.83;13.37;;;;;;;9.42;100.00;97967.50;4968520;28;20217;-59
2022/03/16 09:14:39;;;;;;;14.83;13.17;;;;;;;9.79;100.00;97966.34;4935594;28;20885;-60
2022/03/16 09:17:10;;;;;;;13.80;12.50;;;;;;;9.94;100.00;97963.91;4976919;28;20666;-57
2022/03/16 09:19:39;;;;;;;15.03;13.43;;;;;;;10.17;100.00;97957.19;4982575;28;20248;-57
2022/03/16 09:22:07;;;;;;;14.37;12.97;;;;;;;10.12;100.00;97963.78;4979529;28;20600;-53
2022/03/16 09:24:36;;;;;;;13.80;12.50;;;;;;;10.62;100.00;97960.41;4967360;28;20365;-57
2022/03/16 09:27:05;;;;;;;14.40;12.97;;;;;;;10.57;100.00;97950.31;4971032;28;20220;-58
2022/03/16 09:29:33;;;;;;;14.50;13.10;;;;;;;10.42;100.00;97960.72;4978549;28;20212;-54
2022/03/16 09:32:10;;;;;;;16.87;15.07;;;;;;;10.47;100.00;97973.50;4933371;28;20305;-58
2022/03/16 09:34:39;;;;;;;18.57;15.50;;;;;;;10.44;100.00;97971.16;4983228;28;20213;-60
2022/03/16 09:37:08;;;;;;;16.40;14.70;;;;;;;10.26;100.00;97977.38;4978925;28;20213;-57
2022/03/16 09:39:36;;;;;;;16.87;15.07;;;;;;;10.25;100.00;97986.31;4984516;28;20251;-60
2022/03/16 09:42:05;;;;;;;16.17;14.57;;;;;;;10.16;100.00;97974.88;4950724;28;20214;-58
2022/03/16 09:44:34;;;;;;;15.80;14.23;;;;;;;10.36;100.00;97979.91;4983968;28;20744;-57
2022/03/16 09:47:03;;;;;;;15.10;13.57;;;;;;;10.01;100.00;97977.31;4942989;28;20360;-57
2022/03/16 09:49:32;;;;;;;15.97;14.30;;;;;;;9.82;100.00;97992.47;4984531;28;20303;-58
2022/03/16 09:52:01;;;;;;;15.47;13.87;;;;;;;10.03;100.00;97993.84;4977803;28;20769;-56
2022/03/16 09:54:29;;;;;;;14.17;12.67;;;;;;;10.10;100.00;97994.06;4985601;28;20236;-59
2022/03/16 09:56:58;;;;;;;15.10;13.70;;;;;;;9.92;100.00;97992.34;4959190;28;20220;-56
2022/03/16 09:59:26;;;;;;;14.60;13.17;;;;;;;9.49;100.00;97981.72;4976798;28;20579;-59
2022/03/16 10:02:06;;;;;;;14.83;13.43;;;;;;;9.61;100.00;97982.28;4944223;28;20296;-55
2022/03/16 10:04:37;;;;;;;15.67;13.07;;;;;;;10.20;100.00;97978.03;4984915;28;20212;-58
2022/03/16 10:07:06;;;;;;;14.00;12.70;;;;;;;10.29;100.00;97982.34;4978787;28;20682;-54
2022/03/16 10:15:10;;;;;;;14.60;13.20;;;;;;;10.38;100.00;97983.22;4970472;28;20521;-53
2022/03/16 10:17:46;;;;;;;15.23;13.63;;;;;;;10.80;100.00;97986.75;4942792;28;20233;-57
2022/03/16 10:20:26;;;;;;;15.20;13.83;;;;;;;11.38;100.00;97979.56;4976967;28;20624;-58
2022/03/16 10:22:59;;;;;;;14.87;13.13;;;;;;;11.17;100.00;97974.78;4981108;28;20687;-56
2022/03/16 10:25:30;;;;;;;13.47;12.27;;;;;;;11.29;100.00;97973.44;4980956;28;20262;-56
2022/03/16 10:28:11;;;;;;;14.33;12.87;;;;;;;10.96;100.00;97976.16;4957446;28;20228;-56
2022/03/16 10:30:41;;;;;;;16.33;12.77;;;;;;;11.16;100.00;97975.78;4981978;28;20566;-58
2022/03/16 10:33:15;;;;;;;13.83;12.53;;;;;;;11.67;100.00;97967.53;4937835;28;20205;-61
2022/03/16 10:36:05;;;;;;;20.03;14.33;;;;;;;11.60;100.00;97965.75;4981398;28;20205;-60
2022/03/16 10:38:38;;;;;;;13.57;12.23;;;;;;;11.54;100.00;97956.63;4981427;28;21690;-60
2022/03/16 10:41:14;;;;;;;14.33;12.83;;;;;;;11.27;100.00;97967.47;4978943;28;20408;-57
2022/03/16 10:46:38;;;;;;;14.17;12.87;;;;;;;11.07;100.00;97969.69;4977465;28;20212;-54
2022/03/16 10:49:09;;;;;;;15.03;13.57;;;;;;;11.10;100.00;97971.16;4940342;28;20298;-55
2022/03/16 10:51:39;;;;;;;13.23;11.93;;;;;;;11.19;100.00;97969.31;4983613;28;20465;-59
2022/03/16 10:54:23;;;;;;;13.43;12.03;;;;;;;11.34;100.00;97975.56;4976282;28;20509;-54
2022/03/16 10:56:52;;;;;;;13.70;12.40;;;;;;;11.34;100.00;97974.75;4982185;28;20231;-54
2022/03/16 10:59:21;;;;;;;16.07;12.93;;;;;;;10.94;100.00;97967.53;4961638;28;20223;-59
2022/03/16 11:01:50;;;;;;;14.37;13.00;;;;;;;11.08;100.00;97962.53;4982623;28;20296;-55
2022/03/16 11:04:20;;;;;;;13.13;11.97;;;;;;;11.11;100.00;97967.50;4935951;28;20895;-61
2022/03/16 11:06:50;;;;;;;14.27;12.83;;;;;;;11.63;100.00;97954.78;4983997;28;20216;-55
2022/03/16 11:09:18;;;;;;;13.30;11.97;;;;;;;11.68;100.00;97955.91;4980886;28;20404;-57
2022/03/16 11:14:34;;;;;;;14.07;12.77;;;;;;;11.97;100.00;97948.31;4969245;28;20825;-56
2022/03/16 11:17:03;;;;;;;14.30;13.00;;;;;;;12.19;100.00;97940.59;4983570;28;20297;-55
2022/03/16 11:19:32;;;;;;;14.33;13.00;;;;;;;12.71;100.00;97939.03;4988939;28;20201;-53
2022/03/16 11:22:04;;;;;;;14.67;13.27;;;;;;;12.88;100.00;97932.59;4935498;28;20223;-54
2022/03/16 11:24:35;;;;;;;14.37;12.97;;;;;;;13.06;100.00;97933.25;4987519;28;20204;-56
2022/03/16 11:27:29;;;;;;;14.37;12.97;;;;;;;13.95;100.00;97939.59;4985042;28;20206;-55
2022/03/16 11:30:10;;;;;;;14.80;13.27;;;;;;;12.96;93.85;97931.69;4965833;28;20216;-54
2022/03/16 11:32:40;;;;;;;14.17;12.80;;;;;;;13.13;100.00;97927.03;4986495;28;20577;-57
2022/03/16 11:35:10;;;;;;;16.03;13.50;;;;;;;13.77;100.00;97935.47;4942081;28;20501;-57
2022/03/16 11:37:43;;;;;;;14.07;12.67;;;;;;;13.24;90.60;97927.56;4984686;28;20316;-56